createdAt,value
2018-03-30T00:00:16.641Z,0
2018-03-30T00:00:42.781Z,0
2018-03-30T00:01:08.917Z,0
2018-03-30T00:01:35.052Z,0
2018-03-30T00:02:01.218Z,0
2018-03-30T00:02:27.355Z,0
2018-03-30T00:02:53.489Z,0
2018-03-30T00:03:19.626Z,0
2018-03-30T00:03:45.768Z,0
2018-03-30T00:04:11.920Z,0
2018-03-30T00:04:38.043Z,0
2018-03-30T00:05:04.177Z,0
2018-03-30T00:05:30.313Z,0
2018-03-30T00:05:56.452Z,0
2018-03-30T00:06:22.582Z,0
2018-03-30T00:06:48.740Z,0
2018-03-30T00:07:14.878Z,0
2018-03-30T00:07:41.007Z,0
2018-03-30T00:08:07.179Z,0
2018-03-30T00:08:33.362Z,0
2018-03-30T00:08:59.497Z,0
2018-03-30T00:09:25.660Z,0
2018-03-30T00:09:51.794Z,0
2018-03-30T00:10:17.934Z,0
2018-03-30T00:10:44.071Z,0
2018-03-30T00:11:10.237Z,0
2018-03-30T00:11:36.370Z,0
2018-03-30T00:12:02.515Z,0
2018-03-30T00:12:28.695Z,0
2018-03-30T00:12:54.857Z,0
2018-03-30T00:13:21.003Z,0
2018-03-30T00:13:47.137Z,0
2018-03-30T00:14:13.274Z,0
2018-03-30T00:14:39.408Z,0
2018-03-30T00:15:05.544Z,0
2018-03-30T00:15:31.681Z,0
2018-03-30T00:15:57.823Z,0
2018-03-30T00:16:23.971Z,0
2018-03-30T00:16:50.124Z,0
2018-03-30T00:17:16.308Z,0
2018-03-30T00:17:42.451Z,0
2018-03-30T00:18:08.594Z,0
2018-03-30T00:18:34.731Z,0
2018-03-30T00:19:00.879Z,0
2018-03-30T00:19:27.020Z,0
2018-03-30T00:19:53.149Z,0
2018-03-30T00:20:19.290Z,0
2018-03-30T00:20:45.430Z,0
2018-03-30T00:21:11.563Z,0
2018-03-30T00:21:37.699Z,0
2018-03-30T00:22:03.838Z,0
2018-03-30T00:22:29.994Z,0
2018-03-30T00:22:56.133Z,0
2018-03-30T00:23:22.278Z,0
2018-03-30T00:23:48.421Z,0
2018-03-30T00:24:14.559Z,0
2018-03-30T00:24:40.692Z,0
2018-03-30T00:25:06.842Z,0
2018-03-30T00:25:32.974Z,0
2018-03-30T00:25:59.107Z,0
2018-03-30T00:26:25.248Z,0
2018-03-30T00:26:51.378Z,0
2018-03-30T00:27:17.513Z,0
2018-03-30T00:27:43.651Z,0
2018-03-30T00:28:10.026Z,0
2018-03-30T00:28:36.103Z,0
2018-03-30T00:29:02.235Z,0
2018-03-30T00:29:28.378Z,0
2018-03-30T00:29:54.512Z,0
2018-03-30T00:30:20.644Z,0
2018-03-30T00:30:46.779Z,0
2018-03-30T00:31:12.937Z,0
2018-03-30T00:31:39.064Z,0
2018-03-30T00:32:05.202Z,0
2018-03-30T00:32:31.350Z,0
2018-03-30T00:32:57.480Z,0
2018-03-30T00:33:23.741Z,0
2018-03-30T00:33:49.824Z,0
2018-03-30T00:34:15.979Z,0
2018-03-30T00:34:42.121Z,0
2018-03-30T00:35:08.257Z,0
2018-03-30T00:35:34.389Z,0
2018-03-30T00:36:00.528Z,0
2018-03-30T00:36:26.687Z,0
2018-03-30T00:36:52.850Z,0
2018-03-30T00:37:18.989Z,0
2018-03-30T00:37:45.125Z,0
2018-03-30T00:38:11.290Z,0
2018-03-30T00:38:37.429Z,0
2018-03-30T00:39:03.581Z,0
2018-03-30T00:39:29.713Z,0
2018-03-30T00:39:55.874Z,0
2018-03-30T00:40:22.010Z,0
2018-03-30T00:40:48.153Z,0
2018-03-30T00:41:14.284Z,0
2018-03-30T00:41:40.426Z,0
2018-03-30T00:42:06.558Z,0
2018-03-30T00:42:32.724Z,0
2018-03-30T00:42:58.859Z,0
2018-03-30T00:43:24.997Z,0
2018-03-30T00:43:51.133Z,0
2018-03-30T00:44:17.280Z,0
2018-03-30T00:44:43.416Z,0
2018-03-30T00:45:09.558Z,0
2018-03-30T00:45:35.692Z,0
2018-03-30T00:46:01.829Z,0
2018-03-30T00:46:27.969Z,0
2018-03-30T00:46:54.116Z,0
2018-03-30T00:47:20.278Z,0
2018-03-30T00:47:46.421Z,0
2018-03-30T00:48:12.553Z,0
2018-03-30T00:48:38.691Z,0
2018-03-30T00:49:04.826Z,0
2018-03-30T00:49:30.953Z,0
2018-03-30T00:49:57.087Z,0
2018-03-30T00:50:23.218Z,0
2018-03-30T00:50:49.357Z,0
2018-03-30T00:51:15.514Z,0
2018-03-30T00:51:41.680Z,0
2018-03-30T00:52:07.821Z,0
2018-03-30T00:52:33.953Z,0
2018-03-30T00:53:00.120Z,0
2018-03-30T00:53:26.259Z,0
2018-03-30T00:53:52.397Z,0
2018-03-30T00:54:18.529Z,0
2018-03-30T00:54:44.669Z,0
2018-03-30T00:55:10.808Z,0
2018-03-30T00:55:36.946Z,0
2018-03-30T00:56:03.081Z,0
2018-03-30T00:56:29.242Z,0
2018-03-30T00:56:55.390Z,0
2018-03-30T00:57:21.520Z,0
2018-03-30T00:57:47.659Z,0
2018-03-30T00:58:13.798Z,0
2018-03-30T00:58:39.933Z,0
2018-03-30T00:59:06.072Z,0
2018-03-30T00:59:32.207Z,0
2018-03-30T00:59:58.350Z,0
2018-03-30T01:00:24.484Z,0
2018-03-30T01:00:50.616Z,0
2018-03-30T01:01:16.781Z,0
2018-03-30T01:01:42.975Z,0
2018-03-30T01:02:09.095Z,0
2018-03-30T01:02:35.240Z,0
2018-03-30T01:03:01.370Z,0
2018-03-30T01:03:27.505Z,0
2018-03-30T01:03:53.639Z,0
2018-03-30T01:04:19.804Z,0
2018-03-30T01:04:45.944Z,0
2018-03-30T01:05:12.089Z,0
2018-03-30T01:05:38.216Z,0
2018-03-30T01:06:04.356Z,0
2018-03-30T01:06:30.523Z,0
2018-03-30T01:06:56.640Z,0
2018-03-30T01:07:22.777Z,0
2018-03-30T01:07:48.934Z,0
2018-03-30T01:08:15.067Z,0
2018-03-30T01:08:41.240Z,0
2018-03-30T01:09:07.384Z,0
2018-03-30T01:09:33.523Z,0
2018-03-30T01:09:59.661Z,0
2018-03-30T01:10:25.799Z,0
2018-03-30T01:10:51.938Z,0
2018-03-30T01:11:18.070Z,0
2018-03-30T01:11:44.209Z,0
2018-03-30T01:12:10.345Z,0
2018-03-30T01:12:36.508Z,0
2018-03-30T01:13:02.637Z,0
2018-03-30T01:13:28.776Z,0
2018-03-30T01:13:54.911Z,0
2018-03-30T01:14:21.054Z,0
2018-03-30T01:14:47.183Z,0
2018-03-30T01:15:13.316Z,0
2018-03-30T01:15:39.452Z,0
2018-03-30T01:16:05.590Z,0
2018-03-30T01:16:31.723Z,0
2018-03-30T01:16:57.883Z,0
2018-03-30T01:17:24.019Z,0
2018-03-30T01:17:50.152Z,0
2018-03-30T01:18:16.293Z,0
2018-03-30T01:18:42.439Z,0
2018-03-30T01:19:08.571Z,0
2018-03-30T01:19:34.713Z,0
2018-03-30T01:20:00.852Z,0
2018-03-30T01:20:26.988Z,0
2018-03-30T01:20:53.120Z,0
2018-03-30T01:21:19.257Z,0
2018-03-30T01:21:45.391Z,0
2018-03-30T01:22:11.527Z,0
2018-03-30T01:22:37.690Z,0
2018-03-30T01:23:03.845Z,0
2018-03-30T01:23:29.981Z,0
2018-03-30T01:23:56.119Z,0
2018-03-30T01:24:22.260Z,0
2018-03-30T01:24:48.394Z,0
2018-03-30T01:25:14.538Z,0
2018-03-30T01:25:40.668Z,0
2018-03-30T01:26:06.811Z,0
2018-03-30T01:26:32.944Z,0
2018-03-30T01:26:59.087Z,0
2018-03-30T01:27:25.220Z,0
2018-03-30T01:27:51.358Z,0
2018-03-30T01:28:17.501Z,0
2018-03-30T01:28:43.635Z,0
2018-03-30T01:29:09.797Z,0
2018-03-30T01:29:35.933Z,0
2018-03-30T01:30:02.094Z,0
2018-03-30T01:30:28.254Z,0
2018-03-30T01:30:54.398Z,0
2018-03-30T01:31:20.536Z,0
2018-03-30T01:31:46.675Z,0
2018-03-30T01:32:12.809Z,0
2018-03-30T01:32:38.948Z,0
2018-03-30T01:33:05.084Z,0
2018-03-30T01:33:31.222Z,0
2018-03-30T01:33:57.369Z,0
2018-03-30T01:34:23.499Z,0
2018-03-30T01:34:49.635Z,0
2018-03-30T01:35:15.768Z,0
2018-03-30T01:35:41.903Z,0
2018-03-30T01:36:08.037Z,0
2018-03-30T01:36:34.192Z,0
2018-03-30T01:37:00.337Z,0
2018-03-30T01:37:26.472Z,0
2018-03-30T01:37:52.607Z,0
2018-03-30T01:38:18.803Z,0
2018-03-30T01:38:44.902Z,0
2018-03-30T01:39:11.039Z,0
2018-03-30T01:39:37.174Z,0
2018-03-30T01:40:03.333Z,0
2018-03-30T01:40:29.470Z,0
2018-03-30T01:40:55.613Z,0
2018-03-30T01:41:21.750Z,0
2018-03-30T01:41:47.883Z,0
2018-03-30T01:42:14.020Z,0
2018-03-30T01:42:40.161Z,0
2018-03-30T01:43:06.291Z,0
2018-03-30T01:43:32.450Z,0
2018-03-30T01:43:58.590Z,0
2018-03-30T01:44:24.728Z,0
2018-03-30T01:44:50.865Z,0
2018-03-30T01:45:17.004Z,0
2018-03-30T01:45:43.139Z,0
2018-03-30T01:46:09.289Z,0
2018-03-30T01:46:35.453Z,0
2018-03-30T01:47:01.589Z,0
2018-03-30T01:47:27.724Z,0
2018-03-30T01:47:53.869Z,0
2018-03-30T01:48:20.009Z,0
2018-03-30T01:48:46.147Z,0
2018-03-30T01:49:12.305Z,0
2018-03-30T01:49:38.446Z,0
2018-03-30T01:50:04.578Z,0
2018-03-30T01:50:30.719Z,0
2018-03-30T01:50:56.879Z,0
2018-03-30T01:51:23.024Z,0
2018-03-30T01:51:49.153Z,0
2018-03-30T01:52:15.283Z,0
2018-03-30T01:52:41.428Z,0
2018-03-30T01:53:07.556Z,0
2018-03-30T01:53:33.695Z,0
2018-03-30T01:53:59.829Z,0
2018-03-30T01:54:25.959Z,0
2018-03-30T01:54:52.120Z,0
2018-03-30T01:55:18.258Z,0
2018-03-30T01:55:44.393Z,0
2018-03-30T01:56:10.528Z,0
2018-03-30T01:56:36.667Z,0
2018-03-30T01:57:02.802Z,0
2018-03-30T01:57:28.937Z,0
2018-03-30T01:57:55.100Z,0
2018-03-30T01:58:21.230Z,0
2018-03-30T01:58:47.395Z,0
2018-03-30T01:59:13.537Z,0
2018-03-30T01:59:39.669Z,0
2018-03-30T02:00:05.803Z,0
2018-03-30T02:00:31.935Z,0
2018-03-30T02:00:58.073Z,0
2018-03-30T02:01:24.229Z,0
2018-03-30T02:01:50.394Z,0
2018-03-30T02:02:16.538Z,0
2018-03-30T02:02:42.664Z,0
2018-03-30T02:03:08.807Z,0
2018-03-30T02:03:34.937Z,0
2018-03-30T02:04:01.078Z,0
2018-03-30T02:04:27.212Z,0
2018-03-30T02:04:53.344Z,0
2018-03-30T02:05:19.482Z,0
2018-03-30T02:05:45.636Z,0
2018-03-30T02:06:11.796Z,0
2018-03-30T02:06:37.930Z,0
2018-03-30T02:07:04.092Z,0
2018-03-30T02:07:30.231Z,0
2018-03-30T02:07:56.366Z,0
2018-03-30T02:08:22.501Z,0
2018-03-30T02:08:48.631Z,0
2018-03-30T02:09:14.801Z,0
2018-03-30T02:09:40.932Z,0
2018-03-30T02:10:07.099Z,0
2018-03-30T02:10:33.235Z,0
2018-03-30T02:10:59.398Z,0
2018-03-30T02:11:25.534Z,0
2018-03-30T02:11:51.673Z,0
2018-03-30T02:12:17.811Z,0
2018-03-30T02:12:43.944Z,0
2018-03-30T02:13:10.111Z,0
2018-03-30T02:13:36.249Z,0
2018-03-30T02:14:02.391Z,0
2018-03-30T02:14:28.529Z,0
2018-03-30T02:14:54.664Z,0
2018-03-30T02:15:20.802Z,0
2018-03-30T02:15:46.937Z,0
2018-03-30T02:16:13.076Z,0
2018-03-30T02:16:39.241Z,0
2018-03-30T02:17:05.377Z,0
2018-03-30T02:17:31.517Z,0
2018-03-30T02:17:57.648Z,0
2018-03-30T02:18:23.782Z,0
2018-03-30T02:18:49.922Z,0
2018-03-30T02:19:16.058Z,0
2018-03-30T02:19:42.202Z,0
2018-03-30T02:20:08.362Z,0
2018-03-30T02:20:34.502Z,0
2018-03-30T02:21:00.628Z,0
2018-03-30T02:21:26.761Z,0
2018-03-30T02:21:52.915Z,0
2018-03-30T02:22:19.052Z,0
2018-03-30T02:22:45.214Z,0
2018-03-30T02:23:11.373Z,0
2018-03-30T02:23:37.513Z,0
2018-03-30T02:24:03.645Z,0
2018-03-30T02:24:29.790Z,0
2018-03-30T02:24:55.932Z,0
2018-03-30T02:25:22.061Z,0
2018-03-30T02:25:48.257Z,0
2018-03-30T02:26:14.429Z,0
2018-03-30T02:26:40.527Z,0
2018-03-30T02:27:06.661Z,0
2018-03-30T02:27:32.802Z,0
2018-03-30T02:27:58.939Z,0
2018-03-30T02:28:25.087Z,0
2018-03-30T02:28:51.211Z,0
2018-03-30T02:29:17.348Z,0
2018-03-30T02:29:43.494Z,0
2018-03-30T02:30:09.650Z,0
2018-03-30T02:30:35.817Z,0
2018-03-30T02:31:01.973Z,0
2018-03-30T02:31:28.104Z,0
2018-03-30T02:31:54.243Z,0
2018-03-30T02:32:20.399Z,0
2018-03-30T02:32:46.540Z,0
2018-03-30T02:33:12.677Z,0
2018-03-30T02:33:38.834Z,0
2018-03-30T02:34:05.001Z,0
2018-03-30T02:34:31.127Z,0
2018-03-30T02:34:57.271Z,0
2018-03-30T02:35:23.426Z,0
2018-03-30T02:35:49.571Z,0
2018-03-30T02:36:15.725Z,0
2018-03-30T02:36:41.869Z,0
2018-03-30T02:37:08.003Z,0
2018-03-30T02:37:34.159Z,0
2018-03-30T02:38:00.297Z,0
2018-03-30T02:38:26.462Z,0
2018-03-30T02:38:52.643Z,0
2018-03-30T02:39:18.778Z,0
2018-03-30T02:39:44.962Z,0
2018-03-30T02:40:11.048Z,0
2018-03-30T02:40:37.211Z,0
2018-03-30T02:41:03.352Z,0
2018-03-30T02:41:29.489Z,0
2018-03-30T02:41:55.649Z,0
2018-03-30T02:42:21.785Z,0
2018-03-30T02:42:47.921Z,0
2018-03-30T02:43:14.063Z,0
2018-03-30T02:43:40.232Z,0
2018-03-30T02:44:06.381Z,0
2018-03-30T02:44:32.548Z,0
2018-03-30T02:44:58.691Z,0
2018-03-30T02:45:24.815Z,0
2018-03-30T02:45:50.948Z,0
2018-03-30T02:46:17.091Z,0
2018-03-30T02:46:43.225Z,0
2018-03-30T02:47:09.357Z,0
2018-03-30T02:47:35.505Z,0
2018-03-30T02:48:01.635Z,0
2018-03-30T02:48:27.768Z,0
2018-03-30T02:48:53.902Z,0
2018-03-30T02:49:20.043Z,0
2018-03-30T02:49:46.181Z,0
2018-03-30T02:50:12.334Z,0
2018-03-30T02:50:38.480Z,0
2018-03-30T02:51:04.626Z,0
2018-03-30T02:51:30.757Z,0
2018-03-30T02:51:56.920Z,0
2018-03-30T02:52:23.046Z,0
2018-03-30T02:52:49.251Z,0
2018-03-30T02:53:15.342Z,0
2018-03-30T02:53:41.471Z,0
2018-03-30T02:54:07.636Z,0
2018-03-30T02:54:33.794Z,0
2018-03-30T02:54:59.936Z,0
2018-03-30T02:55:26.073Z,0
2018-03-30T02:55:52.238Z,0
2018-03-30T02:56:18.371Z,0
2018-03-30T02:56:44.514Z,0
2018-03-30T02:57:10.648Z,0
2018-03-30T02:57:36.831Z,0
2018-03-30T02:58:02.960Z,0
2018-03-30T02:58:29.132Z,0
2018-03-30T02:58:55.289Z,0
2018-03-30T02:59:21.431Z,0
2018-03-30T02:59:47.593Z,0
2018-03-30T03:00:13.726Z,0
2018-03-30T03:00:39.867Z,0
2018-03-30T03:01:05.998Z,0
2018-03-30T03:01:32.131Z,0
2018-03-30T03:01:58.281Z,0
2018-03-30T03:02:24.409Z,0
2018-03-30T03:02:50.547Z,0
2018-03-30T03:03:16.680Z,0
2018-03-30T03:03:42.820Z,0
2018-03-30T03:04:08.951Z,0
2018-03-30T03:04:35.093Z,0
2018-03-30T03:05:01.229Z,0
2018-03-30T03:05:27.373Z,0
2018-03-30T03:05:53.497Z,0
2018-03-30T03:06:19.636Z,0
2018-03-30T03:06:45.767Z,0
2018-03-30T03:07:11.955Z,0
2018-03-30T03:07:38.122Z,0
2018-03-30T03:08:04.255Z,0
2018-03-30T03:08:30.416Z,0
2018-03-30T03:08:56.528Z,0
2018-03-30T03:09:22.692Z,0
2018-03-30T03:09:48.824Z,0
2018-03-30T03:10:14.968Z,0
2018-03-30T03:10:41.105Z,0
2018-03-30T03:11:07.243Z,0
2018-03-30T03:11:33.378Z,0
2018-03-30T03:11:59.510Z,0
2018-03-30T03:12:25.652Z,0
2018-03-30T03:12:51.785Z,0
2018-03-30T03:13:17.923Z,0
2018-03-30T03:13:44.067Z,0
2018-03-30T03:14:10.209Z,0
2018-03-30T03:14:36.334Z,0
2018-03-30T03:15:02.473Z,0
2018-03-30T03:15:28.654Z,0
2018-03-30T03:15:54.803Z,0
2018-03-30T03:16:20.937Z,0
2018-03-30T03:16:47.071Z,0
2018-03-30T03:17:13.258Z,0
2018-03-30T03:17:39.398Z,0
2018-03-30T03:18:05.539Z,0
2018-03-30T03:18:31.679Z,0
2018-03-30T03:18:57.817Z,0
2018-03-30T03:19:23.970Z,0
2018-03-30T03:19:50.116Z,0
2018-03-30T03:20:16.257Z,0
2018-03-30T03:20:42.391Z,0
2018-03-30T03:21:08.515Z,0
2018-03-30T03:21:34.653Z,0
2018-03-30T03:22:00.793Z,0
2018-03-30T03:22:26.931Z,0
2018-03-30T03:22:53.114Z,0
2018-03-30T03:23:19.252Z,0
2018-03-30T03:23:45.390Z,0
2018-03-30T03:24:11.555Z,0
2018-03-30T03:24:37.714Z,0
2018-03-30T03:25:03.860Z,0
2018-03-30T03:25:29.993Z,0
2018-03-30T03:25:56.131Z,0
2018-03-30T03:26:22.264Z,0
2018-03-30T03:26:48.427Z,0
2018-03-30T03:27:14.570Z,0
2018-03-30T03:27:40.725Z,0
2018-03-30T03:28:06.864Z,0
2018-03-30T03:28:32.989Z,0
2018-03-30T03:28:59.123Z,0
2018-03-30T03:29:25.260Z,0
2018-03-30T03:29:51.399Z,0
2018-03-30T03:30:17.555Z,0
2018-03-30T03:30:43.708Z,0
2018-03-30T03:31:09.854Z,0
2018-03-30T03:31:36.005Z,0
2018-03-30T03:32:02.146Z,0
2018-03-30T03:32:28.280Z,0
2018-03-30T03:32:54.419Z,0
2018-03-30T03:33:20.560Z,0
2018-03-30T03:33:46.690Z,0
2018-03-30T03:34:12.820Z,0
2018-03-30T03:34:38.984Z,0
2018-03-30T03:35:05.123Z,0
2018-03-30T03:35:31.282Z,0
2018-03-30T03:35:57.426Z,0
2018-03-30T03:36:23.560Z,0
2018-03-30T03:36:49.724Z,0
2018-03-30T03:37:15.874Z,0
2018-03-30T03:37:42.020Z,0
2018-03-30T03:38:08.155Z,0
2018-03-30T03:38:34.298Z,0
2018-03-30T03:39:00.428Z,0
2018-03-30T03:39:26.573Z,0
2018-03-30T03:39:52.703Z,0
2018-03-30T03:40:18.838Z,0
2018-03-30T03:40:44.972Z,0
2018-03-30T03:41:11.113Z,0
2018-03-30T03:41:37.249Z,0
2018-03-30T03:42:03.377Z,0
2018-03-30T03:42:29.516Z,0
2018-03-30T03:42:55.660Z,0
2018-03-30T03:43:21.796Z,0
2018-03-30T03:43:47.936Z,0
2018-03-30T03:44:14.076Z,0
2018-03-30T03:44:40.213Z,0
2018-03-30T03:45:06.346Z,0
2018-03-30T03:45:32.481Z,0
2018-03-30T03:45:58.621Z,0
2018-03-30T03:46:24.751Z,0
2018-03-30T03:46:50.918Z,0
2018-03-30T03:47:17.059Z,0
2018-03-30T03:47:43.196Z,0
2018-03-30T03:48:09.346Z,0
2018-03-30T03:48:35.490Z,0
2018-03-30T03:49:01.626Z,0
2018-03-30T03:49:27.784Z,0
2018-03-30T03:49:53.952Z,0
2018-03-30T03:50:20.082Z,0
2018-03-30T03:50:46.228Z,0
2018-03-30T03:51:12.362Z,0
2018-03-30T03:51:38.492Z,0
2018-03-30T03:52:04.630Z,0
2018-03-30T03:52:30.766Z,0
2018-03-30T03:52:56.907Z,0
2018-03-30T03:53:23.077Z,0
2018-03-30T03:53:49.220Z,0
2018-03-30T03:54:15.378Z,0
2018-03-30T03:54:41.527Z,0
2018-03-30T03:55:07.678Z,0
2018-03-30T03:55:33.826Z,0
2018-03-30T03:55:59.985Z,0
2018-03-30T03:56:26.166Z,0
2018-03-30T03:56:52.295Z,0
2018-03-30T03:57:18.424Z,0
2018-03-30T03:57:44.565Z,0
2018-03-30T03:58:10.706Z,0
2018-03-30T03:58:36.850Z,0
2018-03-30T03:59:02.981Z,0
2018-03-30T03:59:29.145Z,0
2018-03-30T03:59:55.276Z,0
2018-03-30T04:00:21.480Z,0
2018-03-30T04:00:47.622Z,0
2018-03-30T04:01:13.748Z,0
2018-03-30T04:01:39.884Z,0
2018-03-30T04:02:06.017Z,0
2018-03-30T04:02:32.154Z,0
2018-03-30T04:02:58.304Z,0
2018-03-30T04:03:24.470Z,0
2018-03-30T04:03:50.650Z,0
2018-03-30T04:04:16.790Z,0
2018-03-30T04:04:42.926Z,0
2018-03-30T04:05:09.064Z,0
2018-03-30T04:05:35.195Z,0
2018-03-30T04:06:01.338Z,0
2018-03-30T04:06:27.473Z,0
2018-03-30T04:06:53.613Z,0
2018-03-30T04:07:19.752Z,0
2018-03-30T04:07:45.888Z,0
2018-03-30T04:08:12.047Z,0
2018-03-30T04:08:38.183Z,0
2018-03-30T04:09:04.320Z,0
2018-03-30T04:09:30.452Z,0
2018-03-30T04:09:56.598Z,0
2018-03-30T04:10:22.740Z,0
2018-03-30T04:10:48.872Z,0
2018-03-30T04:11:15.006Z,0
2018-03-30T04:11:41.147Z,0
2018-03-30T04:12:07.283Z,0
2018-03-30T04:12:33.422Z,0
2018-03-30T04:12:59.559Z,0
2018-03-30T04:13:25.717Z,0
2018-03-30T04:13:51.845Z,0
2018-03-30T04:14:17.988Z,0
2018-03-30T04:14:44.121Z,0
2018-03-30T04:15:10.273Z,0
2018-03-30T04:15:36.408Z,0
2018-03-30T04:16:02.574Z,0
2018-03-30T04:16:28.732Z,0
2018-03-30T04:16:54.862Z,0
2018-03-30T04:17:20.993Z,0
2018-03-30T04:17:47.157Z,0
2018-03-30T04:18:13.295Z,0
2018-03-30T04:18:39.436Z,0
2018-03-30T04:19:05.568Z,0
2018-03-30T04:19:31.710Z,0
2018-03-30T04:19:57.843Z,0
2018-03-30T04:20:23.981Z,0
2018-03-30T04:20:50.114Z,0
2018-03-30T04:21:16.272Z,0
2018-03-30T04:21:42.402Z,0
2018-03-30T04:22:08.542Z,0
2018-03-30T04:22:34.669Z,0
2018-03-30T04:23:00.809Z,0
2018-03-30T04:23:26.951Z,0
2018-03-30T04:23:53.088Z,0
2018-03-30T04:24:19.245Z,0
2018-03-30T04:24:45.394Z,0
2018-03-30T04:25:11.543Z,0
2018-03-30T04:25:37.706Z,0
2018-03-30T04:26:03.839Z,0
2018-03-30T04:26:30.004Z,0
2018-03-30T04:26:56.136Z,0
2018-03-30T04:27:22.279Z,0
2018-03-30T04:27:48.408Z,0
2018-03-30T04:28:14.553Z,0
2018-03-30T04:28:40.687Z,0
2018-03-30T04:29:06.829Z,0
2018-03-30T04:29:32.994Z,0
2018-03-30T04:29:59.152Z,0
2018-03-30T04:30:25.284Z,0
2018-03-30T04:30:51.425Z,0
2018-03-30T04:31:17.556Z,0
2018-03-30T04:31:43.715Z,0
2018-03-30T04:32:09.851Z,0
2018-03-30T04:32:35.986Z,0
2018-03-30T04:33:02.125Z,0
2018-03-30T04:33:28.289Z,0
2018-03-30T04:33:54.425Z,0
2018-03-30T04:34:20.563Z,0
2018-03-30T04:34:46.703Z,0
2018-03-30T04:35:12.843Z,0
2018-03-30T04:35:38.982Z,0
2018-03-30T04:36:05.121Z,0
2018-03-30T04:36:31.277Z,0
2018-03-30T04:36:57.412Z,0
2018-03-30T04:37:23.547Z,0
2018-03-30T04:37:49.679Z,0
2018-03-30T04:38:15.820Z,0
2018-03-30T04:38:41.962Z,0
2018-03-30T04:39:08.093Z,0
2018-03-30T04:39:34.232Z,0
2018-03-30T04:40:00.376Z,0
2018-03-30T04:40:26.507Z,0
2018-03-30T04:40:52.648Z,0
2018-03-30T04:41:18.805Z,0
2018-03-30T04:41:44.938Z,0
2018-03-30T04:42:11.097Z,4
2018-03-30T04:42:37.234Z,4
2018-03-30T04:43:03.398Z,4
2018-03-30T04:43:29.555Z,4
2018-03-30T04:43:55.723Z,0
2018-03-30T04:44:21.880Z,0
2018-03-30T04:44:48.019Z,0
2018-03-30T04:45:14.156Z,4
2018-03-30T04:45:40.290Z,4
2018-03-30T04:46:06.429Z,4
2018-03-30T04:46:32.566Z,4
2018-03-30T04:46:58.709Z,4
2018-03-30T04:47:24.842Z,4
2018-03-30T04:47:50.986Z,4
2018-03-30T04:48:17.124Z,8
2018-03-30T04:48:43.264Z,4
2018-03-30T04:49:09.397Z,8
2018-03-30T04:49:35.554Z,8
2018-03-30T04:50:01.688Z,4
2018-03-30T04:50:27.833Z,8
2018-03-30T04:50:53.966Z,8
2018-03-30T04:51:20.097Z,8
2018-03-30T04:51:46.229Z,12
2018-03-30T04:52:12.392Z,12
2018-03-30T04:52:38.533Z,12
2018-03-30T04:53:04.670Z,16
2018-03-30T04:53:30.801Z,16
2018-03-30T04:53:56.950Z,16
2018-03-30T04:54:23.108Z,16
2018-03-30T04:54:49.238Z,16
2018-03-30T04:55:15.422Z,20
2018-03-30T04:55:41.503Z,20
2018-03-30T04:56:07.651Z,24
2018-03-30T04:56:33.776Z,24
2018-03-30T04:56:59.912Z,24
2018-03-30T04:57:26.045Z,28
2018-03-30T04:57:52.177Z,28
2018-03-30T04:58:18.316Z,28
2018-03-30T04:58:44.453Z,32
2018-03-30T04:59:10.589Z,32
2018-03-30T04:59:36.762Z,36
2018-03-30T05:00:02.869Z,36
2018-03-30T05:00:29.002Z,40
2018-03-30T05:00:55.136Z,44
2018-03-30T05:01:21.269Z,48
2018-03-30T05:01:47.418Z,48
2018-03-30T05:02:13.568Z,48
2018-03-30T05:02:39.712Z,52
2018-03-30T05:03:05.846Z,56
2018-03-30T05:03:31.991Z,60
2018-03-30T05:03:58.128Z,60
2018-03-30T05:04:24.267Z,64
2018-03-30T05:04:50.405Z,68
2018-03-30T05:05:16.543Z,76
2018-03-30T05:05:42.682Z,76
2018-03-30T05:06:08.818Z,80
2018-03-30T05:06:34.960Z,88
2018-03-30T05:07:01.094Z,92
2018-03-30T05:07:27.238Z,100
2018-03-30T05:07:53.396Z,108
2018-03-30T05:08:19.508Z,112
2018-03-30T05:08:45.638Z,116
2018-03-30T05:09:11.801Z,120
2018-03-30T05:09:37.932Z,128
2018-03-30T05:10:04.070Z,136
2018-03-30T05:10:30.213Z,144
2018-03-30T05:10:56.341Z,152
2018-03-30T05:11:22.482Z,156
2018-03-30T05:11:48.636Z,164
2018-03-30T05:12:14.802Z,168
2018-03-30T05:12:40.937Z,176
2018-03-30T05:13:07.076Z,184
2018-03-30T05:13:33.216Z,188
2018-03-30T05:13:59.354Z,196
2018-03-30T05:14:25.479Z,200
2018-03-30T05:14:51.615Z,208
2018-03-30T05:15:17.751Z,216
2018-03-30T05:15:43.888Z,220
2018-03-30T05:16:10.024Z,232
2018-03-30T05:16:36.201Z,240
2018-03-30T05:17:02.307Z,244
2018-03-30T05:17:28.462Z,252
2018-03-30T05:17:54.598Z,260
2018-03-30T05:18:20.742Z,272
2018-03-30T05:18:46.886Z,276
2018-03-30T05:19:13.019Z,288
2018-03-30T05:19:39.157Z,292
2018-03-30T05:20:05.299Z,296
2018-03-30T05:20:31.428Z,300
2018-03-30T05:20:57.573Z,308
2018-03-30T05:21:23.704Z,312
2018-03-30T05:21:49.847Z,320
2018-03-30T05:22:15.975Z,328
2018-03-30T05:22:42.142Z,332
2018-03-30T05:23:08.275Z,344
2018-03-30T05:23:34.438Z,356
2018-03-30T05:24:00.604Z,368
2018-03-30T05:24:26.744Z,384
2018-03-30T05:24:52.888Z,404
2018-03-30T05:25:19.030Z,416
2018-03-30T05:25:45.187Z,436
2018-03-30T05:26:11.325Z,448
2018-03-30T05:26:37.465Z,464
2018-03-30T05:27:03.601Z,484
2018-03-30T05:27:29.734Z,500
2018-03-30T05:27:55.872Z,520
2018-03-30T05:28:22.039Z,540
2018-03-30T05:28:48.168Z,552
2018-03-30T05:29:14.333Z,572
2018-03-30T05:29:40.472Z,588
2018-03-30T05:30:06.635Z,604
2018-03-30T05:30:32.765Z,620
2018-03-30T05:30:58.897Z,632
2018-03-30T05:31:25.034Z,644
2018-03-30T05:31:51.172Z,652
2018-03-30T05:32:17.311Z,664
2018-03-30T05:32:43.451Z,668
2018-03-30T05:33:09.602Z,676
2018-03-30T05:33:35.747Z,680
2018-03-30T05:34:01.910Z,684
2018-03-30T05:34:28.043Z,680
2018-03-30T05:34:54.178Z,680
2018-03-30T05:35:20.313Z,680
2018-03-30T05:35:46.453Z,680
2018-03-30T05:36:12.580Z,684
2018-03-30T05:36:38.713Z,684
2018-03-30T05:37:04.856Z,692
2018-03-30T05:37:30.996Z,700
2018-03-30T05:37:57.137Z,712
2018-03-30T05:38:23.272Z,728
2018-03-30T05:38:49.414Z,748
2018-03-30T05:39:15.562Z,768
2018-03-30T05:39:41.697Z,788
2018-03-30T05:40:07.825Z,804
2018-03-30T05:40:33.963Z,824
2018-03-30T05:41:00.099Z,840
2018-03-30T05:41:26.235Z,860
2018-03-30T05:41:52.371Z,880
2018-03-30T05:42:18.510Z,904
2018-03-30T05:42:44.642Z,920
2018-03-30T05:43:10.809Z,940
2018-03-30T05:43:36.942Z,952
2018-03-30T05:44:03.082Z,960
2018-03-30T05:44:29.214Z,968
2018-03-30T05:44:55.344Z,968
2018-03-30T05:45:21.488Z,960
2018-03-30T05:45:47.624Z,956
2018-03-30T05:46:13.775Z,956
2018-03-30T05:46:39.889Z,948
2018-03-30T05:47:06.031Z,944
2018-03-30T05:47:32.167Z,948
2018-03-30T05:47:58.303Z,952
2018-03-30T05:48:24.459Z,960
2018-03-30T05:48:50.594Z,972
2018-03-30T05:49:16.731Z,976
2018-03-30T05:49:42.865Z,988
2018-03-30T05:50:09.008Z,1000
2018-03-30T05:50:35.137Z,1020
2018-03-30T05:51:01.282Z,1040
2018-03-30T05:51:27.438Z,1064
2018-03-30T05:51:53.632Z,1092
2018-03-30T05:52:19.781Z,1120
2018-03-30T05:52:45.914Z,1148
2018-03-30T05:53:12.058Z,1176
2018-03-30T05:53:38.203Z,1216
2018-03-30T05:54:04.331Z,1264
2018-03-30T05:54:30.467Z,1312
2018-03-30T05:54:56.606Z,1368
2018-03-30T05:55:22.741Z,1420
2018-03-30T05:55:48.890Z,1476
2018-03-30T05:56:15.031Z,1524
2018-03-30T05:56:41.174Z,1572
2018-03-30T05:57:07.305Z,1620
2018-03-30T05:57:33.443Z,1664
2018-03-30T05:57:59.584Z,1708
2018-03-30T05:58:25.722Z,1756
2018-03-30T05:58:51.862Z,1796
2018-03-30T05:59:17.997Z,1840
2018-03-30T05:59:44.138Z,1888
2018-03-30T06:00:10.284Z,1940
2018-03-30T06:00:36.414Z,1992
2018-03-30T06:01:02.555Z,2036
2018-03-30T06:01:28.700Z,2072
2018-03-30T06:01:54.834Z,2100
2018-03-30T06:02:21.042Z,2124
2018-03-30T06:02:47.136Z,2140
2018-03-30T06:03:13.303Z,2148
2018-03-30T06:03:39.441Z,2160
2018-03-30T06:04:05.583Z,2168
2018-03-30T06:04:31.721Z,2172
2018-03-30T06:04:57.863Z,2172
2018-03-30T06:05:24.016Z,2168
2018-03-30T06:05:50.143Z,2160
2018-03-30T06:06:16.286Z,2156
2018-03-30T06:06:42.423Z,2144
2018-03-30T06:07:08.580Z,2136
2018-03-30T06:07:34.737Z,2132
2018-03-30T06:08:00.871Z,2144
2018-03-30T06:08:27.030Z,2164
2018-03-30T06:08:53.170Z,2188
2018-03-30T06:09:19.311Z,2232
2018-03-30T06:09:45.447Z,2280
2018-03-30T06:10:11.579Z,2340
2018-03-30T06:10:37.721Z,2412
2018-03-30T06:11:03.862Z,2492
2018-03-30T06:11:30.025Z,2576
2018-03-30T06:11:56.153Z,2676
2018-03-30T06:12:22.323Z,2776
2018-03-30T06:12:48.479Z,2864
2018-03-30T06:13:14.615Z,2948
2018-03-30T06:13:40.755Z,3028
2018-03-30T06:14:06.889Z,3104
2018-03-30T06:14:33.033Z,3180
2018-03-30T06:14:59.196Z,3244
2018-03-30T06:15:25.329Z,3288
2018-03-30T06:15:51.468Z,3316
2018-03-30T06:16:17.594Z,3360
2018-03-30T06:16:43.752Z,3436
2018-03-30T06:17:09.910Z,3520
2018-03-30T06:17:36.054Z,3608
2018-03-30T06:18:02.194Z,3692
2018-03-30T06:18:28.323Z,3784
2018-03-30T06:18:54.469Z,3884
2018-03-30T06:19:20.601Z,4000
2018-03-30T06:19:46.737Z,4116